Tiempo atmosférico en la estación meteorológica de Fuerteventura Aeropuerto, Las Palmas (25 m.)



Fecha
DESCASC
Temp. máxima en grados centígrados (hora)
DESCASC
Temp. mínima en grados centígrados (hora)
DESCASC
Temp. media en grados centígrados
DESCASC
Racha de viento máxima en m/sg (hora)
DESCASC
Velocidad máxima media en intervalos de 10 minutos(hora)
DESCASC
Precipitaciones diarias en mm
DESCASC
Precipitaciones de 00:00 a 06:00 en mm
DESCASC
Precipitaciones de 06:00 a 12:00 en mm
DESCASC
Precipitaciones de 12:00 a 18:00 en mm
DESCASC
Precipitaciones de 18:00 a 24:00 en mm
DESCASC
14-10-2018 27.1 (15:10) 22.4 (22:50) 24.8 12.5 (21:40) 10.28 (21:50) 0 0 0 0 0
13-10-2018 27.9 (13:40) 19.7 (04:50) 23.8 8.33 (21:00) 5.28 (15:40) 0 0 0 0 0
12-10-2018 26.2 (13:20) 21.2 (08:10) 23.7 7.22 (10:40) 5.28 (10:40) 0 0 0 0 0
11-10-2018 26.3 (14:40) 20 (07:30) 23.1 6.67 (08:10) 5 (21:30) 0 0 0 0 0
10-10-2018 28.5 (13:00) 22.4 (03:20) 25.4 15.28 (13:10) 10.28 (13:50) 0 0 0 0 0
08-10-2018 30.4 (16:40) 21.3 (07:30) 25.8 10.83 (20:10) 6.94 (19:40) 0 0 0 0 0
07-10-2018 26 (14:50) 21.5 (04:30) 23.8 5.83 (07:40) 3.61 (15:50) 0 0 0 0 0
06-10-2018 26.8 (15:00) 22.3 (08:00) 24.5 10.83 (07:40) 4.72 (13:10) 0 0 0 0 0
05-10-2018 25.5 (14:20) 20.9 (08:00) 23.2 9.17 (23:20) 5.28 (00:20) 0 0 0 0 0
04-10-2018 29 (16:50) 20.5 (00:00) 24.8 11.67 (16:20) 8.61 (17:00) 0 0 0 0 0
03-10-2018 26.7 (17:00) 21.2 (00:00) 24 12.5 (18:00) 10 (18:10) 0 0 0 0 0
02-10-2018 26.7 (14:00) 22 (00:00) 24.4 8.33 (09:10) 6.11 (13:30) 0 0 0 0 0
01-10-2018 27.5 (13:30) 21.6 (00:00) 24.6 8.89 (07:50) 6.94 (13:40) 0 0 0 0 0
30-09-2018 -- (--) -- (--) -- -- (--) -- (--) -- 0 0 0 --
29-09-2018 27.1 (12:40) 22.1 (00:00) 24.6 11.39 (19:40) 7.5 (16:00) 0 0 0 0 0
28-09-2018 27.4 (18:50) 22.1 (00:00) 24.8 11.67 (19:50) 8.33 (11:10) 0 0 0 0 0
27-09-2018 27 (13:50) 20.5 (00:00) 23.8 11.67 (21:00) 8.89 (21:00) 0 0 0 0 0
26-09-2018 28.2 (12:00) 21.9 (00:00) 25.1 12.5 (20:40) 7.5 (14:50) 0 0 0 0 0
25-09-2018 26.5 (15:00) 21.3 (00:00) 23.9 8.33 (01:00) 6.39 (02:30) 0 0 0 0 0
24-09-2018 26.5 (14:00) 22.1 (00:00) 24.3 9.17 (10:20) 7.22 (00:50) 0 0 0 0 0
23-09-2018 27.9 (10:20) 22.7 (03:30) 25.3 10.83 (11:40) 8.61 (11:50) 0 0 0 0 0
22-09-2018 26.8 (14:20) 21.5 (07:30) 24.1 10.83 (01:20) 8.61 (01:20) 0 0 0 0 0
21-09-2018 26.7 (14:10) 22.5 (01:20) 24.6 11.39 (17:20) 8.89 (17:20) 0 0 0 0 0
20-09-2018 26.5 (14:00) 22.6 (07:40) 24.6 8.89 (12:10) 7.22 (20:20) 0 0 0 0 0
19-09-2018 26.1 (16:50) 22.1 (07:30) 24.1 8.89 (00:10) 6.67 (00:10) 0 0 0 0 0
18-09-2018 26.6 (12:50) 23 (05:10) 24.8 10.28 (23:10) 8.61 (23:10) 0 0 0 0 0
17-09-2018 26.1 (15:10) 22.5 (03:30) 24.3 11.67 (00:30) 9.17 (00:20) 0 0 0 0 0
16-09-2018 29.1 (13:30) 22.3 (00:00) 25.7 13.33 (10:50) 10.83 (10:40) 0 0 0 0 0
15-09-2018 28.5 (15:40) 22.2 (00:00) 25.4 12.5 (15:50) 9.72 (16:40) 0 0 0 0 0

Gráficas

Temp. máximas Temp. mínimas Temp. medias Precipitaciones Rachas de viento máximas Velocidades máximas media en intervalos de 10 minutos

Datos horarios

Fecha y hora oficial Temperatura (ºC) Velocidad del viento (km/h) Dirección del viento Racha (km/h) Dirección de racha Precipitación (mm) Presión (hPa) Tendencia (hPa) Humedad (%)
2018-10-14 23:00:00 22.7 33 Norte 45 Nordeste 0 1014 1.8 87
2018-10-14 22:00:00 23.2 36 Nordeste 45 Nordeste 0 1013.5 1.6 87
2018-10-14 21:00:00 23.6 31 Norte 42 Norte 0 1012.7 0.9 84
2018-10-14 20:00:00 23.9 23 Norte 33 Norte 0 1012.2 0.7 83
2018-10-14 19:00:00 23.8 28 Nordeste 37 Norte 0 1011.9 0.7 88
2018-10-14 18:00:00 24.6 27 Nordeste 39 Nordeste 0 1011.8 0.3 85
2018-10-14 17:00:00 25.2 30 Nordeste 39 Nordeste 0 1011.5 -0.8 80
2018-10-14 16:00:00 26.6 26 Nordeste 32 Nordeste 0 1011.2 -1.7 70
2018-10-14 15:00:00 26.5 20 Nordeste 24 Nordeste 0 1011.5 -1.7 68
2018-10-14 14:00:00 26 16 Nordeste 26 Nordeste 0 1012.3 -0.8 71
2018-10-14 13:00:00 26 18 Nordeste 24 Nordeste 0 1012.9 0.1 71
2018-10-14 12:00:00 26.1 18 Nordeste 24 Nordeste 0 1013.2 0.9 71
2018-10-14 11:00:00 25.6 13 Norte 22 Nordeste 0 1013.1 1.2 71
2018-10-14 10:00:00 25 16 Norte 24 Norte 0 1012.8 0.9 75
2018-10-14 09:00:00 23.5 11 Norte 15 Noroeste 0 1012.3 0.6 82
2018-10-14 08:00:00 22.9 6 Norte 15 Norte 0 1011.9 0.4 87
2018-10-14 07:00:00 23.1 13 Norte 26 Norte 0 1011.9 -0.2 86
2018-10-14 06:00:00 23.8 11 Norte 22 Norte 0 1011.7 -0.9 83
2018-10-14 05:00:00 24.4 8 Nordeste 13 Nordeste 0 1011.5 -1.3 78
2018-10-14 04:00:00 24.4 6 Nordeste 13 Nordeste 0 1012.1 -1.1 79
2018-10-14 03:00:00 24.2 0 Calma 9 Oeste 0 1012.6 -0.9 78
2018-10-14 02:00:00 23.8 8 Oeste 13 Noroeste 0 1012.8 -0.6 79
2018-10-14 01:00:00 23.8 2 Noroeste 13 Noroeste 0 1013.2 0.2 76
2018-10-14 00:00:00 23.8 7 Norte 26 Norte 0 1013.5 0.7 76
2018-10-13 23:00:00 23.9 15 Noroeste 28 Norte 0 1013.4 1.3 76
2018-10-13 22:00:00 23.7 13 Noroeste 30 Noroeste 0 1013 1 74
2018-10-13 21:00:00 24.2 14 Noroeste 30 Oeste 0 1012.8 0.8 69
2018-10-13 20:00:00 24.4 5 Sudeste 13 Sudeste 0 1012.1 -0.2 75
2018-10-13 19:00:00 24.9 8 Este 17 Sudeste 0 1012 -0.7 74
2018-10-13 18:00:00 25.4 13 Sudeste 24 Sudeste 0 1012 -1.2 72
2018-10-13 17:00:00 26.1 18 Sudeste 24 Sudeste 0 1012.3 -1.3 67
2018-10-13 16:00:00 26.2 15 Sudeste 24 Sudeste 0 1012.7 -1.5 66
2018-10-13 15:00:00 26.4 15 Sudeste 26 Sudeste 0 1013.2 -1.3 67
2018-10-13 14:00:00 26.4 9 Sudeste 28 Noroeste 0 1013.6 -1 67
2018-10-13 13:00:00 25.7 14 Nordeste 21 Nordeste 0 1014.2 -0.3 66
2018-10-13 12:00:00 25.3 12 Este 15 Este 0 1014.5 0.4 68
2018-10-13 11:00:00 24.5 8 Este 15 Nordeste 0 1014.6 1.2 70
2018-10-13 10:00:00 23.4 3 Este 21 Oeste 0 1014.5 1.5 76
2018-10-13 09:00:00 21.2 2 Oeste 22 Noroeste 0 1014.1 1 83
2018-10-13 08:00:00 20 4 Sudoeste 18 Oeste 0 1013.4 0.4 86
2018-10-13 07:00:00 20.2 6 Noroeste 18 Oeste 0 1013 -0.2 86
2018-10-13 06:00:00 20.5 11 Noroeste 18 Oeste 0 1013.1 -1 83
2018-10-13 05:00:00 19.8 14 Oeste 17 Oeste 0 1013 -1.6 84
2018-10-13 04:00:00 20.7 11 Noroeste 13 Noroeste 0 1013.2 -1.3 83
2018-10-13 03:00:00 21.3 8 Noroeste 15 Oeste 0 1014.1 -0.9 81
2018-10-13 02:00:00 22.3 12 Noroeste 13 Noroeste 0 1014.6 -0.4 81
2018-10-13 01:00:00 23.3 11 Nordeste 18 Nordeste 0 1014.5 -0.5 82
2018-10-13 00:00:00 23.7 13 Nordeste 17 Nordeste 0 1015 0.4 80
2018-10-12 23:00:00 23.6 12 Nordeste 21 Nordeste 0 1015 0.9 80
2018-10-12 22:00:00 23.9 15 Nordeste 18 Nordeste 0 1015 0.9 80
2018-10-12 21:00:00 23.8 13 Nordeste 18 Nordeste 0 1014.6 0.3 80
2018-10-12 20:00:00 24 12 Nordeste 18 Nordeste 0 1014.1 -0.2 78
2018-10-12 19:00:00 24.5 14 Nordeste 18 Nordeste 0 1014.1 -0.2 75
2018-10-12 18:00:00 25 12 Nordeste 18 Nordeste 0 1014.3 -0.4 72
2018-10-12 17:00:00 25.3 13 Nordeste 18 Nordeste 0 1014.3 -1.1 69
2018-10-12 16:00:00 25.3 10 Nordeste 18 Nordeste 0 1014.3 -2.1 70
2018-10-12 15:00:00 25.5 15 Este 22 Nordeste 0 1014.7 -2.1 68
2018-10-12 14:00:00 26 16 Nordeste 24 Nordeste 0 1015.4 -1.3 67
2018-10-12 13:00:00 25.9 17 Nordeste 24 Nordeste 0 1016.4 -0.2 67
2018-10-12 12:00:00 25.2 17 Nordeste 24 Nordeste 0 1016.8 0.7 70
2018-10-12 11:00:00 24.8 18 Nordeste 26 Nordeste 0 1016.7 1 71
2018-10-12 10:00:00 24.2 17 Nordeste 22 Norte 0 1016.6 1.5 73
2018-10-12 09:00:00 22.5 14 Norte 21 Noroeste 0 1016.1 1.4 81
2018-10-12 08:00:00 21.3 13 Noroeste 24 Norte 0 1015.7 1.1 82
2018-10-12 07:00:00 21.3 12 Norte 17 Norte 0 1015.1 0.4 81
2018-10-12 06:00:00 22 10 Norte 22 Nordeste 0 1014.7 -0.5 80
2018-10-12 05:00:00 22.2 12 Norte 15 Norte 0 1014.6 -1 81
2018-10-12 04:00:00 22.4 10 Norte 15 Norte 0 1014.7 -1.1 81
2018-10-12 03:00:00 22.7 10 Norte 15 Norte 0 1015.2 -0.8 81
2018-10-12 02:00:00 22.7 12 Norte 13 Norte 0 1015.6 -0.1 79
2018-10-12 01:00:00 23 10 Noroeste 13 Noroeste 0 1015.8 0.4 77
2018-10-12 00:00:00 23.5 8 Norte 13 Norte 0 1016 1.4 74
2018-10-11 23:00:00 23.8 11 Norte 22 Norte 0 1015.7 1.8 74
2018-10-11 22:00:00 24.1 15 Noroeste 24 Norte 0 1015.4 2 71
2018-10-11 21:00:00 24.5 11 Oeste 24 Este 0 1014.6 1.5 69
2018-10-11 20:00:00 24.3 11 Este 17 Nordeste 0 1013.9 0.7 72
2018-10-11 19:00:00 24.9 10 Nordeste 18 Este 0 1013.4 0.3 70
2018-10-11 18:00:00 25.5 12 Nordeste 18 Este 0 1013.1 -0.1 68
2018-10-11 17:00:00 25.6 12 Este 21 Nordeste 0 1013.2 -0.3 70
2018-10-11 16:00:00 25.9 11 Este 21 Este 0 1013.1 -1 68
2018-10-11 15:00:00 25.6 13 Este 21 Este 0 1013.2 -1.3 71
2018-10-11 14:00:00 25.6 14 Este 22 Este 0 1013.5 -0.8 69
2018-10-11 13:00:00 25.5 17 Este 21 Nordeste 0 1014.1 0.1 70
2018-10-11 12:00:00 25.3 14 Este 21 Este 0 1014.5 1.3 72
2018-10-11 11:00:00 24.6 10 Este 15 Este 0 1014.3 2 72
2018-10-11 10:00:00 23.4 6 Sudeste 9 Sudeste 0 1014 2.3 78
2018-10-11 09:00:00 21.5 9 Oeste 24 Oeste 0 1013.2 2.1 85
2018-10-11 08:00:00 20.1 9 Oeste 18 Oeste 0 1012.3 1.2 87
2018-10-11 07:00:00 20.3 10 Oeste 13 Oeste 0 1011.7 0.7 87
2018-10-11 06:00:00 20.7 9 Oeste 15 Noroeste 0 1011.1 0.1 86
2018-10-11 05:00:00 21.5 12 Noroeste 15 Noroeste 0 1011.1 -0.1 85
2018-10-11 04:00:00 21.9 2 Oeste 13 Noroeste 0 1011 -0.4 84
2018-10-11 03:00:00 22.5 4 Noroeste 17 Oeste 0 1011 -0.4 83
2018-10-11 02:00:00 22.3 15 Noroeste 21 Noroeste 0 1011.2 0.2 85
2018-10-11 01:00:00 22.7 6 Noroeste 15 Oeste 0 1011.4 0.9 84
2018-10-11 00:00:00 23.2 7 Noroeste 18 Sudoeste 0 1011.4 1.8 83
2018-10-10 23:00:00 23.4 10 Oeste 26 Oeste 0 1011 2.1 82
2018-10-10 22:00:00 24 12 Noroeste 28 Oeste 0 1010.5 2.4 80
2018-10-10 21:00:00 24.3 14 Noroeste 35 Oeste 0 1009.6 1.9 78
2018-10-10 20:00:00 24.8 19 Oeste 33 Oeste 0 1008.9 1.5 75
2018-10-10 19:00:00 25.6 20 Oeste 46 Oeste 0 1008.1 1.2 69
2018-10-10 18:00:00 26.9 21 Oeste 46 Oeste 0 1007.7 0.8 61
2018-10-10 17:00:00 27.2 22 Oeste 39 Oeste 0 1007.4 -0.1 61
2018-10-10 16:00:00 27.6 26 Oeste 42 Noroeste 0 1006.9 -0.4 61
2018-10-10 15:00:00 28 31 Noroeste 45 Noroeste 0 1006.9 -0.7 61
2018-10-10 14:00:00 24.7 27 Noroeste 55 Oeste 0 1007.5 0.3 78
2018-10-10 13:00:00 28.2 30 Oeste 45 Oeste 0 1007.3 0.6 58
2018-10-10 12:00:00 25.2 23 Oeste 45 Oeste 0 1007.6 1.4 72
2018-10-10 11:00:00 26.8 28 Oeste 48 Oeste 0 1007.2 1.6 61
2018-10-10 10:00:00 25.8 26 Oeste 48 Oeste 0 1006.7 1.6 64
2018-10-10 09:00:00 24.2 23 Oeste 33 Oeste 0 1006.2 1.5 74
2018-10-10 08:00:00 23.2 14 Oeste 32 Oeste 0 1005.6 0.8 78
2018-10-10 07:00:00 23.2 14 Oeste 28 Oeste 0 1005.1 0.2 80
2018-10-10 06:00:00 23.6 16 Oeste 28 Oeste 0 1004.7 -0.7 77
2018-10-10 05:00:00 23 13 Sudoeste 22 Oeste 0 1004.8 -0.8 78
2018-10-10 04:00:00 22.4 5 Sur 8 Sur 0 1004.9 -0.9 78
2018-10-10 03:00:00 22.8 8 Sudoeste 11 Oeste 0 1005.4 -0.6 80
2018-10-10 02:00:00 23.1 5 Sudoeste 11 Sudeste 0 1005.6 -0.4 77
2018-10-10 01:00:00 23.3 9 Sudoeste 15 Oeste 0 1005.8 0.2 74
2018-10-10 00:00:00 24 13 Oeste 22 Oeste 0 1006 1 74
2018-10-09 23:00:00 24.2 13 Oeste 18 Oeste 0 1006 1.3 74
2018-10-09 22:00:00 24.4 14 Oeste 33 Oeste 0 1005.6 1 77
2018-10-09 21:00:00 25.2 21 Sudoeste 39 Oeste 0 1005 0.4 73
2018-10-09 20:00:00 25.8 23 Sudoeste 46 Sudoeste 0 1004.7 0.1 67
2018-10-09 19:00:00 26.3 23 Sudoeste 52 Oeste 0 1004.6 -0.3 70
2018-10-09 18:00:00 27.9 23 Sudoeste 59 Sudoeste 0 1004.6 -0.7 61
2018-10-09 17:00:00 28.3 27 Sur 45 Sur 0 1004.6 -1.5 60
2018-10-09 16:00:00 28.5 26 Sur 41 Sur 0 1004.9 -2 58
2018-10-09 15:00:00 28 22 Sur 42 Sur 0 1005.3 -2.2 60
2018-10-09 14:00:00 28.2 23 Sur 46 Sudoeste 0 1006.1 -1.8 57
2018-10-09 13:00:00 27.2 30 Sur 45 Sudoeste 0 1006.9 -0.9 62
2018-10-09 12:00:00 26.3 26 Sudeste 35 Sudeste 0 1007.5 0.2 70
2018-10-09 11:00:00 25.5 17 Sudeste 24 Sudeste 0 1007.9 1 71
2018-10-09 10:00:00 24.1 9 Sur 15 Sudoeste 0 1007.8 1.2 69
2018-10-09 09:00:00 21.8 8 Oeste 24 Norte 0 1007.3 0.8 78
2018-10-09 08:00:00 20.3 8 Oeste 26 Noroeste 0 1006.9 0.5 81
2018-10-09 07:00:00 20.2 10 Oeste 13 Oeste 0 1006.6 0.2 82
2018-10-09 06:00:00 20.5 9 Oeste 13 Oeste 0 1006.5 -0.3 85
2018-10-09 05:00:00 21.2 4 Sudoeste 5 Sur 0 1006.4 -1 83
2018-10-09 04:00:00 22 3 Oeste 13 Oeste 0 1006.4 -1.7 80
2018-10-09 03:00:00 22.4 9 Oeste 21 Oeste 0 1006.8 -1.8 80
2018-10-09 02:00:00 22.7 10 Oeste 18 Oeste 0 1007.4 -1.5 80
2018-10-09 01:00:00 23.3 7 Noroeste 9 Oeste 0 1008.1 -0.9 77
2018-10-09 00:00:00 23.8 6 Oeste 15 Oeste 0 1008.6 0 77
2018-10-08 23:00:00 24.4 12 Oeste 18 Oeste 0 1008.9 0.7 76
2018-10-08 22:00:00 24.7 9 Noroeste 24 Noroeste 0 1009 1.2 75
2018-10-08 21:00:00 25.2 15 Noroeste 39 Noroeste 0 1008.6 0.8 75
2018-10-08 20:00:00 25.7 23 Noroeste 37 Noroeste 0 1008.2 0.3 73
2018-10-08 19:00:00 26.8 14 Nordeste 28 Nordeste 0 1007.8 -0.3 69
2018-10-08 18:00:00 27 19 Nordeste 32 Norte 0 1007.8 -0.9 67
2018-10-08 17:00:00 29 19 Norte 30 Nordeste 0 1007.9 -1.5 57
2018-10-08 16:00:00 27.6 24 Nordeste 33 Norte 0 1008.1 -2.4 65
2018-10-08 15:00:00 27.1 19 Sudeste 30 Sudeste 0 1008.7 -2.2 69
2018-10-08 14:00:00 26.8 20 Sudeste 26 Sudeste 0 1009.4 -1.7 72
2018-10-08 13:00:00 26.1 13 Sudeste 18 Sudeste 0 1010.5 -0.5 75
2018-10-08 12:00:00 26.1 13 Sudeste 17 Este 0 1010.9 -0.1 68
2018-10-08 11:00:00 25.5 9 Este 15 Nordeste 0 1011.1 0.1 66
2018-10-08 10:00:00 24.4 0 Calma 17 Oeste 0 1011 0.4 59
2018-10-08 09:00:00 22.3 6 Oeste 22 Oeste 0 1011 0.7 74
2018-10-08 08:00:00 21.5 6 Oeste 26 Oeste 0 1011 0.5 88
2018-10-08 07:00:00 21.5 9 Sudoeste 11 Sudoeste 0 1010.6 -0.6 88
2018-10-08 06:00:00 21.9 4 Oeste 8 Este 0 1010.3 -1.5 87
2018-10-08 05:00:00 22.6 6 Nordeste 11 Nordeste 0 1010.5 -1.9 88
2018-10-08 04:00:00 22.9 8 Nordeste 13 Este 0 1011.2 -1.9 88
2018-10-08 03:00:00 23.1 9 Nordeste 15 Norte 0 1011.8 -1.9 87
2018-10-08 02:00:00 23.3 10 Nordeste 13 Nordeste 0 1012.4 -1.4 87
2018-10-08 01:00:00 23.6 11 Nordeste 15 Nordeste 0 1013.1 -0.4 88
2018-10-08 00:00:00 23.6 10 Norte 13 Norte 0 1013.7 0.7 86
2018-10-07 23:00:00 23.7 8 Nordeste 9 Nordeste 0 1013.8 1.2 85
2018-10-07 22:00:00 23.9 8 Nordeste 9 Norte 0 1013.5 1 85
2018-10-07 21:00:00 24.1 0 Calma 5 Este 0 1013 0.3 84
2018-10-07 20:00:00 24.3 4 Sudeste 11 Sudeste 0 1012.6 -0.1 83
2018-10-07 19:00:00 24.7 5 Este 11 Este 0 1012.5 -0.5 81
2018-10-07 18:00:00 25.2 6 Este 15 Sudeste 0 1012.7 -0.4 78
2018-10-07 17:00:00 25.5 11 Sudeste 17 Sudeste 0 1012.7 -0.9 77
2018-10-07 16:00:00 25.6 12 Sudeste 18 Este 0 1013 -1.4 76
2018-10-07 15:00:00 25.7 12 Sudeste 18 Este 0 1013.1 -2 76
2018-10-07 14:00:00 25.4 12 Este 17 Este 0 1013.6 -1.5 77
2018-10-07 13:00:00 25.2 11 Este 17 Este 0 1014.4 -0.5 77
2018-10-07 12:00:00 25.1 8 Sudeste 15 Sudeste 0 1015.1 0.7 79
2018-10-07 11:00:00 24.5 7 Sudeste 13 Sudeste 0 1015.1 1.1 82
2018-10-07 10:00:00 23.8 5 Sudeste 11 Noroeste 0 1014.9 1.3 84
2018-10-07 09:00:00 22.3 7 Noroeste 21 Noroeste 0 1014.4 1.2 86
2018-10-07 08:00:00 21.7 7 Oeste 21 Oeste 0 1014 0.8 85
2018-10-07 07:00:00 22.1 4 Noroeste 9 Noroeste 0 1013.6 0.3 84
2018-10-07 06:00:00 22.1 6 Noroeste 11 Noroeste 0 1013.2 -0.2 84
2018-10-07 05:00:00 -- 9 Noroeste 13 Noroeste 0 1013.2 -0.7 --
2018-10-07 04:00:00 21.9 11 Noroeste 13 Noroeste 0 1013.3 -0.7 81
2018-10-07 03:00:00 22 9 Oeste 13 Noroeste 0 1013.4 -0.8 79
2018-10-07 02:00:00 22.3 5 Oeste 11 Oeste 0 1013.9 -0.4 78
2018-10-07 01:00:00 22.9 6 Noroeste 9 Oeste 0 1014 0.1 78
2018-10-07 00:00:00 23.3 7 Oeste 15 Noroeste 0 1014.2 0.7 77
2018-10-06 23:00:00 23.8 0 Calma 9 Nordeste 0 1014.3 1.7 82
2018-10-06 22:00:00 24.1 6 Nordeste 9 Nordeste 0 1013.9 1.6 79
2018-10-06 21:00:00 24.3 3 Sudeste 8 Este 0 1013.5 1.5 78
2018-10-06 20:00:00 24.6 7 Sudeste 13 Sudeste 0 1012.6 1 77
2018-10-06 19:00:00 25 10 Sudeste 17 Sudeste 0 1012.3 1 76
2018-10-06 18:00:00 25.4 13 Sudeste 17 Sudeste 0 1012 0.5 76
2018-10-06 17:00:00 25.9 11 Este 18 Este 0 1011.6 0 73
2018-10-06 16:00:00 26 13 Este 18 Este 0 1011.3 -0.8 72
2018-10-06 15:00:00 26.6 13 Sudeste 21 Sudeste 0 1011.5 -0.8 70
2018-10-06 14:00:00 26.1 15 Sudeste 21 Sudeste 0 1011.6 -0.6 70
2018-10-06 13:00:00 25.7 17 Sudeste 21 Sudeste 0 1012.1 0.2 71
2018-10-06 12:00:00 25.5 14 Sudeste 21 Sudeste 0 1012.3 0.9 71
2018-10-06 11:00:00 25.1 13 Sudeste 17 Sudeste 0 1012.2 1.3 73
2018-10-06 10:00:00 24.1 4 Este 11 Este 0 1011.9 1.3 76
2018-10-06 09:00:00 23 0 Calma 28 Oeste 0 1011.4 1.4 80
2018-10-06 08:00:00 22.4 9 Oeste 39 Oeste 0 1010.9 1.4 84
2018-10-06 07:00:00 22.5 15 Noroeste 22 Oeste 0 1010.6 1 85
2018-10-06 06:00:00 22.5 9 Oeste 17 Oeste 0 1010 0.7 84
2018-10-06 05:00:00 23.1 10 Oeste 17 Oeste 0 1009.5 -0.4 81
2018-10-06 04:00:00 23.3 13 Oeste 17 Oeste 0 1009.6 -0.5 81
2018-10-06 03:00:00 23.5 10 Oeste 11 Oeste 0 1009.3 -0.9 79
2018-10-06 02:00:00 23.7 5 Sudoeste 11 Sudoeste 0 1009.9 0.2 77
2018-10-06 01:00:00 23.7 4 Oeste 11 Oeste 0 1010.1 0.2 75
2018-10-06 00:00:00 23.6 4 Norte 33 Nordeste 0 1010.2 0.7 79
2018-10-05 23:00:00 23.8 5 Nordeste 11 Nordeste 0 1009.7 0.3 79
2018-10-05 22:00:00 23.8 8 Nordeste 13 Nordeste 0 1009.9 0.7 82
2018-10-05 21:00:00 23.9 7 Nordeste 11 Nordeste 0 1009.5 0.6 78
2018-10-05 20:00:00 24.1 6 Nordeste 11 Este 0 1009.4 0.6 78
2018-10-05 19:00:00 24.3 8 Sudeste 13 Sudeste 0 1009.2 0.3 77
2018-10-05 18:00:00 24.4 8 Sudeste 13 Sudeste 0 1008.9 -0.4 76
2018-10-05 17:00:00 24.8 10 Sudeste 17 Sudeste 0 1008.8 -0.8 75
2018-10-05 16:00:00 25.2 12 Sudeste 18 Sudeste 0 1008.9 -1.1 74
2018-10-05 15:00:00 25.2 12 Este 18 Este 0 1009.3 -1.3 74
2018-10-05 14:00:00 25 13 Este 18 Este 0 1009.6 -1.4 74
2018-10-05 13:00:00 24.7 13 Nordeste 17 Nordeste 0 1010 -0.9 75
2018-10-05 12:00:00 24.9 10 Nordeste 17 Este 0 1010.6 0.1 71
2018-10-05 11:00:00 23.9 8 Este 13 Este 0 1011 0.8 73
2018-10-05 10:00:00 23.1 4 Norte 15 Oeste 0 1010.9 1 75
2018-10-05 09:00:00 21.5 6 Sudoeste 15 Oeste 0 1010.5 0.4 80
2018-10-05 08:00:00 21.3 8 Sudoeste 22 Oeste 0 1010.2 0.1 81
2018-10-05 07:00:00 21.6 9 Oeste 13 Oeste 0 1009.9 -0.5 83
2018-10-05 06:00:00 21.4 10 Oeste 13 Noroeste 0 1010.1 -0.8 84
2018-10-05 05:00:00 22.1 10 Noroeste 15 Norte 0 1010.1 -1.2 84
2018-10-05 04:00:00 22.5 11 Norte 17 Nordeste 0 1010.4 -1.5 85
2018-10-05 03:00:00 22.9 12 Norte 17 Norte 0 1010.9 -1.1 85
2018-10-05 02:00:00 23.1 13 Nordeste 18 Nordeste 0 1011.3 -0.9 85
2018-10-05 01:00:00 23.2 12 Nordeste 22 Nordeste 0 1011.9 0.1 85
2018-10-05 00:00:00 23.6 19 Nordeste 26 Nordeste 0 1012 1 83
2018-10-04 23:00:00 24 13 Nordeste 21 Norte 0 1012.2 1.5 84
2018-10-04 22:00:00 24.3 15 Norte 22 Norte 0 1011.8 1.1 79
2018-10-04 21:00:00 24.8 17 Norte 26 Norte 0 1011 0.2 74
2018-10-04 20:00:00 25.3 17 Norte 30 Norte 0 1010.7 -0.1 71
2018-10-04 19:00:00 26.7 19 Norte 32 Norte 0 1010.7 0 67
2018-10-04 18:00:00 28.5 21 Norte 41 Oeste 0 1010.8 -0.4 58
2018-10-04 17:00:00 28 31 Oeste 42 Norte 0 1010.8 -1.3 62
2018-10-04 16:00:00 26.8 30 Nordeste 39 Nordeste 0 1010.7 -2.2 75
2018-10-04 15:00:00 27.6 22 Nordeste 30 Nordeste 0 1011.2 -1.9 70
2018-10-04 14:00:00 26.3 13 Este 18 Este 0 1012.1 -1.2 74
2018-10-04 13:00:00 25.4 11 Este 24 Nordeste 0 1012.9 -0.5 75
2018-10-04 12:00:00 25.6 17 Nordeste 24 Nordeste 0 1013.1 0.3 76
2018-10-04 11:00:00 24.4 10 Sudeste 13 Sudeste 0 1013.3 0.7 75
2018-10-04 10:00:00 23.3 6 Sudeste 9 Sudeste 0 1013.4 1.1 79
2018-10-04 09:00:00 22.5 4 Noroeste 21 Norte 0 1012.8 0.7 81
2018-10-04 08:00:00 21.1 7 Oeste 21 Oeste 0 1012.6 0.9 85
2018-10-04 07:00:00 21 10 Oeste 11 Oeste 0 1012.3 0 84
2018-10-04 06:00:00 20.9 0 Calma 13 Noroeste 0 1012.1 -0.7 83
2018-10-04 05:00:00 21.7 8 Noroeste 11 Noroeste 0 1011.7 -1.9 81
2018-10-04 04:00:00 21.3 7 Noroeste 13 Oeste 0 1012.3 -1.7 79
2018-10-04 03:00:00 21.5 8 Noroeste 11 Noroeste 0 1012.8 -1.5 76
2018-10-04 02:00:00 21.9 4 Oeste -- -- -- 1013.6 -0.7 75
2018-10-04 01:00:00 22.6 13 Norte 22 Norte 0 1014 0 76
2018-10-04 00:00:00 22.7 12 Norte 17 Norte 0 1014.3 0.8 70
2018-10-03 23:00:00 23.3 14 Norte 24 Norte 0 1014.3 1 69
2018-10-03 22:00:00 24 10 Noroeste 22 Norte 0 1014 1.1 68
2018-10-03 21:00:00 24.7 17 Noroeste 24 Norte 0 1013.5 0.8 68
2018-10-03 20:00:00 25 19 Norte 35 Nordeste 0 1013.3 0.5 73
2018-10-03 19:00:00 24.8 28 Nordeste 45 Nordeste 0 1012.9 -0.4 81
2018-10-03 18:00:00 26.1 36 Nordeste 45 Nordeste 0 1012.7 -1 74
2018-10-03 17:00:00 26.4 15 Nordeste 26 Nordeste 0 1012.8 -1.6 73
2018-10-03 16:00:00 25.6 15 Nordeste 24 Este 0 1013.3 -1.7 74
2018-10-03 15:00:00 25.4 14 Este 18 Este 0 1013.7 -2.1 73
2018-10-03 14:00:00 25.1 14 Este 18 Este 0 1014.4 -1.4 74
2018-10-03 13:00:00 25 13 Este 18 Nordeste 0 1015 -0.3 73
2018-10-03 12:00:00 24.9 13 Nordeste 18 Nordeste 0 1015.8 1 74
2018-10-03 11:00:00 24.4 13 Nordeste 18 Nordeste 0 1015.8 1.7 74
2018-10-03 10:00:00 23.8 12 Nordeste 18 Norte 0 1015.3 1.5 76
2018-10-03 09:00:00 21.9 11 Noroeste 28 Oeste 0 1014.8 1.2 80
2018-10-03 08:00:00 21.5 12 Norte 18 Noroeste 0 1014.1 0.5 82
2018-10-03 07:00:00 22.1 13 Norte 21 Norte 0 1013.8 0 83
2018-10-03 06:00:00 22.3 17 Norte 24 Norte 0 1013.6 -0.4 81
2018-10-03 05:00:00 22.5 15 Norte 24 Nordeste 0 1013.6 -0.8 82
2018-10-03 04:00:00 22.6 17 Nordeste 24 Norte 0 1013.8 -1.1 83
2018-10-03 03:00:00 22.8 18 Nordeste 24 Nordeste 0 1014 -1.1 84
2018-10-03 02:00:00 23.2 18 Nordeste -- -- -- 1014.4 -0.5 83
2018-10-03 01:00:00 23.5 15 Nordeste 24 Nordeste 0 1014.9 0.3 83
2018-10-03 00:00:00 23.5 14 Nordeste 21 Nordeste 0 1015.1 1.1 83
2018-10-02 23:00:00 23.5 11 Nordeste 21 Nordeste 0 1014.9 1.3 84
2018-10-02 22:00:00 23.5 13 Nordeste 18 Norte 0 1014.6 1.5 84
2018-10-02 21:00:00 23.5 13 Nordeste 18 Norte 0 1014 0.9 84
2018-10-02 20:00:00 23.7 15 Nordeste 21 Nordeste 0 1013.6 0.5 83
2018-10-02 19:00:00 24.3 17 Nordeste 22 Nordeste 0 1013.1 -0.3 81
2018-10-02 18:00:00 25 15 Nordeste 24 Nordeste 0 1013.1 -0.4 78
2018-10-02 17:00:00 25.2 17 Nordeste 24 Nordeste 0 1013.1 -0.8 76
2018-10-02 16:00:00 25.5 18 Nordeste 26 Nordeste 0 1013.4 -1.1 74
2018-10-02 15:00:00 25.9 19 Nordeste 26 Nordeste 0 1013.5 -1.4 72
2018-10-02 14:00:00 26.4 22 Nordeste 28 Nordeste 0 1013.9 -0.9 71
2018-10-02 13:00:00 25.8 17 Nordeste 26 Nordeste 0 1014.5 -0.1 73
2018-10-02 12:00:00 25.3 16 Nordeste 26 Nordeste 0 1014.9 1 73
2018-10-02 11:00:00 24.6 16 Nordeste 24 Nordeste 0 1014.8 1.3 75
2018-10-02 10:00:00 24.1 15 Nordeste 30 Nordeste 0 1014.6 1.8 79
2018-10-02 09:00:00 23.3 16 Norte 26 Norte 0 1013.9 1.5 82
2018-10-02 08:00:00 22.2 15 Norte 24 Noroeste 0 1013.5 1.4 85
2018-10-02 07:00:00 22.1 15 Norte 24 Norte 0 1012.8 0.5 86
2018-10-02 06:00:00 22.7 19 Norte 28 Nordeste 0 1012.4 -0.3 86
2018-10-02 05:00:00 22.8 20 Nordeste 28 Norte 0 1012.1 -0.9 86
2018-10-02 04:00:00 22.8 21 Norte 28 Norte 0 1012.3 -1 86
2018-10-02 03:00:00 23.2 19 Nordeste 26 Nordeste 0 1012.7 -0.8 87
2018-10-02 02:00:00 23.4 20 Nordeste -- -- -- 1013 -0.7 87
2018-10-02 01:00:00 23.6 19 Norte 24 Norte 0 1013.3 0 89
2018-10-02 00:00:00 23.7 17 Norte 24 Norte 0 1013.5 0.7 89
2018-10-01 23:00:00 23.9 19 Norte 28 Norte 0 1013.7 1.4 87
2018-10-01 22:00:00 24.1 17 Norte 26 Nordeste 0 1013.3 1.1 88
2018-10-01 21:00:00 24.2 18 Norte 24 Norte 0 1012.8 0.9 87
2018-10-01 20:00:00 24.4 19 Norte 24 Norte 0 1012.3 0.3 87
2018-10-01 19:00:00 25.1 19 Nordeste 26 Nordeste 0 1012.2 0.3 85
2018-10-01 18:00:00 25.7 18 Nordeste 28 Nordeste 0 1011.9 -0.2 83
2018-10-01 17:00:00 26.1 21 Nordeste 28 Nordeste 0 1012 -0.5 81
2018-10-01 16:00:00 26.4 21 Nordeste 28 Nordeste 0 1011.9 -1 80
2018-10-01 15:00:00 26.6 18 Nordeste 26 Nordeste 0 1012.1 -1.2 79
2018-10-01 14:00:00 26.8 21 Nordeste 30 Nordeste 0 1012.5 -0.9 77
2018-10-01 13:00:00 26.9 20 Nordeste 24 Nordeste 0 1012.9 0 72
2018-10-01 12:00:00 27.1 18 Nordeste 24 Nordeste 0 1013.3 1 67
2018-10-01 11:00:00 26.9 20 Nordeste 26 Nordeste 0 1013.4 1.4 65
2018-10-01 10:00:00 26.3 13 Nordeste 26 Noroeste 0 1012.9 1.3 62
2018-10-01 09:00:00 24 12 Noroeste 24 Noroeste 0 1012.3 0.8 70
2018-10-01 08:00:00 23 15 Noroeste 32 Oeste 0 1012 0.8 70
2018-10-01 07:00:00 22.1 14 Noroeste 18 Noroeste 0 1011.6 0.5 74
2018-10-01 06:00:00 22.3 14 Noroeste 18 Norte 0 1011.5 -0.2 74
2018-10-01 05:00:00 22 9 Norte 15 Norte 0 1011.2 -1 80
2018-10-01 04:00:00 22.6 7 Noroeste 15 Noroeste 0 1011.1 -1 81
2018-10-01 03:00:00 22.8 12 Noroeste 15 Norte 0 1011.7 -0.7 87
2018-10-01 02:00:00 23.2 10 Norte -- -- -- 1012.2 -0.2 90
2018-10-01 01:00:00 23.5 17 Norte 28 Nordeste 0 1012.1 -- 91
2018-10-01 00:00:00 23.8 21 Nordeste 28 Nordeste 0 1012.4 -- 91
2018-09-30 23:00:00 23.7 18 Nordeste -- -- -- 1012.4 1.5 90
2018-09-30 22:00:00 -- -- -- -- -- -- -- -- --
2018-09-30 21:00:00 -- -- -- -- -- -- -- -- --
2018-09-30 20:00:00 24.2 16 Nordeste 21 Nordeste 0 1010.9 0.1 86
2018-09-30 19:00:00 24.9 15 Nordeste 21 Nordeste 0 1010.7 -0.3 82
2018-09-30 18:00:00 25.5 15 Nordeste 21 Nordeste 0 1010.8 -0.5 79
2018-09-30 17:00:00 25.7 13 Nordeste 21 Nordeste 0 1010.8 -0.4 77
2018-09-30 16:00:00 25.8 14 Nordeste 21 Nordeste 0 1011 -0.7 77
2018-09-30 15:00:00 25.6 17 Este 22 Este 0 1011.3 -0.7 77
2018-09-30 14:00:00 25.7 14 Nordeste 22 Nordeste 0 1011.2 -0.8 75
2018-09-30 13:00:00 25.5 16 Nordeste 24 Nordeste 0 1011.7 -0.2 75
2018-09-30 12:00:00 25.2 17 Nordeste 22 Nordeste 0 1012 0.7 78
2018-09-30 11:00:00 24.6 15 Nordeste 22 Nordeste 0 1012 0.9 80
2018-09-30 10:00:00 23.9 13 Nordeste 21 Norte 0 1011.9 1.2 83
2018-09-30 09:00:00 22.4 13 Norte 24 Noroeste 0 1011.3 0.8 86
2018-09-30 08:00:00 21.4 12 Noroeste 26 Noroeste 0 1011.1 1.3 86
2018-09-30 07:00:00 21.5 13 Noroeste 17 Noroeste 0 1010.7 0.5 85
2018-09-30 06:00:00 21.6 10 Noroeste 13 Noroeste 0 1010.5 0 85
2018-09-30 05:00:00 21.5 12 Noroeste 15 Noroeste 0 1009.8 -1.1 85
2018-09-30 04:00:00 21.7 13 Noroeste 15 Noroeste 0 1010.2 -1.1 84
2018-09-30 03:00:00 21.9 10 Noroeste 15 Noroeste 0 1010.5 -0.9 86
2018-09-30 02:00:00 22.8 9 Norte 15 Norte 0 1010.9 -0.5 85
2018-09-30 01:00:00 22.8 9 Norte 15 Norte 0 1011.3 0.4 83
2018-09-30 00:00:00 23.1 11 Norte 22 Norte 0 1011.4 1.1 83
2018-09-29 23:00:00 23.6 13 Norte -- -- -- 1011.4 1.6 79
2018-09-29 22:00:00 24 13 Norte 30 Noroeste 0 1010.9 1.1 75
2018-09-29 21:00:00 24.7 14 Noroeste 30 Noroeste 0 1010.3 0.4 72
2018-09-29 20:00:00 25.3 21 Norte 41 Noroeste 0 1009.8 -0.2 68
2018-09-29 19:00:00 24.7 16 Nordeste 28 Nordeste 0 1009.8 -0.1 81
2018-09-29 18:00:00 25 8 Este 13 Este 0 1009.9 -0.7 80
2018-09-29 17:00:00 25.1 10 Este 33 Nordeste 0 1010 -1.3 82
2018-09-29 16:00:00 26.5 27 Nordeste 35 Nordeste 0 1009.9 -1.8 75
2018-09-29 15:00:00 25.9 16 Nordeste 28 Nordeste 0 1010.6 -1.4 75
2018-09-29 14:00:00 26.2 21 Nordeste 32 Nordeste 0 1011.3 -0.8 72
2018-09-29 13:00:00 26.5 21 Nordeste 32 Nordeste 0 1011.7 -0.2 73
2018-09-29 12:00:00 25.7 19 Nordeste 28 Nordeste 0 1012 0.6 80
2018-09-29 11:00:00 26.6 19 Nordeste 28 Norte 0 1012.1 1 72
2018-09-29 10:00:00 25.5 16 Norte 24 Norte 0 1011.9 0.8 69
2018-09-29 09:00:00 23.7 7 Nordeste 30 Noroeste 0 1011.4 0.6 79
2018-09-29 08:00:00 22.3 12 Norte 22 Noroeste 0 1011.1 0.2 80
2018-09-29 07:00:00 22.5 14 Noroeste 22 Norte 0 1011.1 0.2 79
2018-09-29 06:00:00 22.6 11 Noroeste 21 Noroeste 0 1010.8 -0.7 79
2018-09-29 05:00:00 22.7 17 Norte 21 Norte 0 1010.9 -1.2 81
2018-09-29 04:00:00 22.9 17 Noroeste 22 Noroeste 0 1010.9 -1.6 84
2018-09-29 03:00:00 23.1 17 Norte 24 Norte 0 1011.5 -1.5 86
2018-09-29 02:00:00 23.5 20 Nordeste 32 Nordeste 0 1012.1 -0.8 86
2018-09-29 01:00:00 23.8 22 Nordeste 32 Nordeste 0 1012.5 -0.1 85
2018-09-29 00:00:00 23.6 22 Nordeste 32 Nordeste 0 1013 1.4 86
2018-09-28 23:00:00 24 18 Norte 28 Norte 0 1012.9 2 83
2018-09-28 22:00:00 24.1 17 Norte 32 Norte 0 1012.6 1.8 77
2018-09-28 21:00:00 24.7 19 Norte 32 Noroeste 0 1011.6 1.1 73
2018-09-28 20:00:00 25.5 26 Norte 42 Noroeste 0 1010.9 -0.2 70
2018-09-28 19:00:00 27.1 26 Norte 35 Norte 0 1010.8 -0.6 66
2018-09-28 18:00:00 26 26 Nordeste 33 Nordeste 0 1010.5 -1.6 75
2018-09-28 17:00:00 26.3 22 Nordeste 30 Nordeste 0 1011.1 -1.8 72
2018-09-28 16:00:00 26.2 24 Nordeste 32 Nordeste 0 1011.4 -2 71
2018-09-28 15:00:00 26.4 24 Nordeste 30 Nordeste 0 1012.1 -1.6 70
2018-09-28 14:00:00 26.3 22 Nordeste 28 Nordeste 0 1012.9 -0.7 71
2018-09-28 13:00:00 26.2 21 Nordeste 28 Nordeste 0 1013.4 -0.4 71
2018-09-28 12:00:00 26 26 Nordeste 37 Nordeste 0 1013.7 0.3 70
2018-09-28 11:00:00 25.5 28 Nordeste 35 Nordeste 0 1013.6 0.4 72
2018-09-28 10:00:00 24.5 21 Norte 30 Norte 0 1013.8 1 73
2018-09-28 09:00:00 23.2 18 Norte 24 Norte 0 1013.4 0.6 78
2018-09-28 08:00:00 22.1 13 Norte 22 Norte 0 1013.2 0.5 81
2018-09-28 07:00:00 22.3 19 Norte 26 Norte 0 1012.8 -0.5 80
2018-09-28 06:00:00 22.5 19 Norte 28 Norte 0 1012.8 -1.1 80
2018-09-28 05:00:00 22.5 21 Norte 28 Norte 0 1012.7 -1.8 80
2018-09-28 04:00:00 22.4 22 Norte 32 Norte 0 1013.3 -1.4 79
2018-09-28 03:00:00 22.6 26 Norte 33 Norte 0 1013.9 -0.9 79
2018-09-28 02:00:00 22.9 27 Norte 37 Norte 0 1014.5 -0.9 78
2018-09-28 01:00:00 23.4 21 Norte 30 Norte 0 1014.7 -0.7 75
2018-09-28 00:00:00 23.5 14 Norte 30 Norte 0 1014.8 -0.4 72
2018-09-27 23:00:00 23.6 22 Norte 37 Norte 0 1015.4 0.7 72
2018-09-27 22:00:00 23.6 26 Norte 39 Norte 0 1015.4 0.8 74
2018-09-27 21:00:00 24 32 Norte 42 Norte 0 1015.2 0.4 72
2018-09-27 20:00:00 24.9 29 Norte 39 Norte 0 1014.7 -0.5 71
2018-09-27 19:00:00 24.8 25 Nordeste 32 Nordeste 0 1014.6 -0.6 82
2018-09-27 18:00:00 25.5 23 Nordeste 33 Nordeste 0 1014.8 -1.1 78
2018-09-27 17:00:00 25.9 28 Nordeste 39 Nordeste 0 1015.2 -1.3 76
2018-09-27 16:00:00 26.3 26 Nordeste 33 Nordeste 0 1015.2 -1.5 76
2018-09-27 15:00:00 26.4 23 Nordeste 33 Nordeste 0 1015.9 -1.2 74
2018-09-27 14:00:00 26.4 26 Nordeste 33 Nordeste 0 1016.5 -0.6 74
2018-09-27 13:00:00 25.8 19 Nordeste 24 Nordeste 0 1016.7 0.2 74
2018-09-27 12:00:00 25.7 18 Nordeste 28 Nordeste 0 1017.1 1 73
2018-09-27 11:00:00 25.6 24 Nordeste 35 Norte 0 1017.1 1.3 72
2018-09-27 10:00:00 25.2 27 Norte 37 Norte 0 1016.5 1.2 71
2018-09-27 09:00:00 23.2 14 Norte 22 Norte 0 1016.1 1.6 78
2018-09-27 08:00:00 21.6 15 Norte 22 Noroeste 0 1015.8 1.2 79
2018-09-27 07:00:00 22.3 8 Norte 35 Oeste 0 1015.3 0.2 75
2018-09-27 06:00:00 22.6 24 Oeste 33 Oeste 0 1014.5 -1.2 75
2018-09-27 05:00:00 22.6 19 Noroeste 28 Noroeste 0 1014.6 -1.8 72
2018-09-27 04:00:00 20.8 5 Noroeste 11 Norte 0 1015.1 -1.4 77
2018-09-27 03:00:00 21.6 8 Noroeste 17 Noroeste 0 1015.7 -0.7 74
2018-09-27 02:00:00 22 10 Norte 15 Norte 0 1016.4 0.1 73
2018-09-27 01:00:00 22.4 11 Noroeste 18 Noroeste 0 1016.5 0.4 75
2018-09-27 00:00:00 22.9 11 Norte 24 Norte 0 1016.4 1 77
2018-09-26 23:00:00 23.1 15 Norte 22 Norte 0 1016.3 2 73
2018-09-26 22:00:00 23.3 17 Norte 28 Norte 0 1016.1 2 76
2018-09-26 21:00:00 24.1 16 Noroeste 45 Noroeste 0 1015.4 1.2 75
2018-09-26 20:00:00 25.1 13 Oeste 24 Oeste 0 1014.3 -0.2 72
2018-09-26 19:00:00 24.7 14 Nordeste 21 Nordeste 0 1014.1 -0.5 81
2018-09-26 18:00:00 25.1 16 Nordeste 22 Nordeste 0 1014.2 -0.3 80
2018-09-26 17:00:00 25.4 14 Nordeste 21 Este 0 1014.5 -0.5 79
2018-09-26 16:00:00 25.9 14 Este 32 Nordeste 0 1014.6 -0.6 77
2018-09-26 15:00:00 27.1 27 Nordeste 35 Nordeste 0 1014.5 -0.7 65
2018-09-26 14:00:00 26.8 25 Nordeste 35 Nordeste 0 1015 -0.3 74
2018-09-26 13:00:00 26.9 15 Nordeste 21 Este 0 1015.2 0 73
2018-09-26 12:00:00 28.1 10 Nordeste 13 Nordeste 0 1015.2 0 43
2018-09-26 11:00:00 27.2 9 Nordeste 17 Oeste 0 1015.3 0.7 46
2018-09-26 10:00:00 24.6 10 Noroeste 24 Noroeste 0 1015.2 1 69
2018-09-26 09:00:00 22.5 9 Noroeste 18 Oeste 0 1015.2 1.5 88
2018-09-26 08:00:00 22.1 10 Norte 17 Noroeste 0 1014.6 0.7 88
2018-09-26 07:00:00 22 12 Noroeste 18 Norte 0 1014.2 0.3 87
2018-09-26 06:00:00 22.8 13 Norte 21 Norte 0 1013.7 -0.4 87
2018-09-26 05:00:00 23 13 Nordeste 22 Nordeste 0 1013.9 -0.8 89
2018-09-26 04:00:00 22.9 15 Nordeste 21 Nordeste 0 1013.9 -1.2 89
2018-09-26 03:00:00 23.2 12 Norte 18 Norte 0 1014.1 -0.6 92
2018-09-26 02:00:00 23.1 13 Nordeste 21 Nordeste 0 1014.7 0.3 90
2018-09-26 01:00:00 23.2 14 Nordeste 22 Nordeste 0 1015.1 1.3 93
2018-09-26 00:00:00 23.2 17 Nordeste 22 Nordeste 0 1014.7 1.4 92
2018-09-25 23:00:00 23.4 13 Nordeste 17 Nordeste 0 1014.4 1.4 91
2018-09-25 22:00:00 23.5 12 Norte 17 Nordeste 0 1013.8 0.9 91
2018-09-25 21:00:00 23.7 13 Norte 17 Norte 0 1013.3 0.6 89
2018-09-25 20:00:00 24.1 15 Nordeste 21 Nordeste 0 1013 0.2 89
2018-09-25 19:00:00 24.8 15 Nordeste 22 Nordeste 0 1012.9 -0.3 86
2018-09-25 18:00:00 25.4 17 Nordeste 21 Nordeste 0 1012.7 -0.9 83
2018-09-25 17:00:00 25.5 14 Nordeste 21 Nordeste 0 1012.8 -1.3 82
2018-09-25 16:00:00 25.6 15 Nordeste 21 Este 0 1013.2 -1.4 80
2018-09-25 15:00:00 26.1 16 Nordeste 24 Este 0 1013.6 -1.1 79
2018-09-25 14:00:00 26 13 Nordeste 21 Nordeste 0 1014.1 -0.3 77
2018-09-25 13:00:00 25.8 14 Nordeste 22 Este 0 1014.6 0.6 78
2018-09-25 12:00:00 26.1 19 Nordeste 26 Nordeste 0 1014.7 1.1 73
2018-09-25 11:00:00 25.1 12 Este 18 Este 0 1014.4 1.2 80
2018-09-25 10:00:00 24.2 7 Nordeste 17 Norte 0 1014 1.3 82
2018-09-25 09:00:00 23 12 Norte 17 Norte 0 1013.6 0.9 88
2018-09-25 08:00:00 21.4 6 Norte 15 Norte 0 1013.2 0.1 85
2018-09-25 07:00:00 22 10 Norte 17 Norte 0 1012.7 -0.9 87
2018-09-25 06:00:00 22.3 12 Norte 21 Norte 0 1012.7 -1.4 87
2018-09-25 05:00:00 22.6 14 Norte 21 Norte 0 1013.1 -1.5 87
2018-09-25 04:00:00 22.7 14 Nordeste 22 Nordeste 0 1013.6 -0.9 89
2018-09-25 03:00:00 22.7 17 Nordeste 30 Nordeste 0 1014.1 0.1 90
2018-09-25 02:00:00 23.1 22 Nordeste 30 Nordeste 0 1014.6 0.3 92
2018-09-25 01:00:00 23.5 20 Este 30 Este 0 1014.5 0.7 90
2018-09-25 00:00:00 23.5 5 Nordeste 22 Nordeste 0 1014 1.1 90
2018-09-24 23:00:00 23.6 19 Nordeste 24 Nordeste 0 1014.3 1.6 92
2018-09-24 22:00:00 23.8 15 Nordeste 24 Norte 0 1013.8 1.2 90
2018-09-24 21:00:00 23.9 17 Norte 24 Nordeste 0 1012.9 0.2 90
2018-09-24 20:00:00 24.2 15 Nordeste 21 Nordeste 0 1012.7 0 88
2018-09-24 19:00:00 24.8 14 Nordeste 24 Norte 0 1012.6 -0.6 86
2018-09-24 18:00:00 25.4 18 Nordeste 26 Norte 0 1012.7 -1.1 82
2018-09-24 17:00:00 25.9 15 Nordeste 24 Norte 0 1012.7 -2.2 80
2018-09-24 16:00:00 25.9 21 Nordeste 26 Nordeste 0 1013.2 -2 79
2018-09-24 15:00:00 25.8 17 Nordeste 24 Nordeste 0 1013.8 -1.7 78
2018-09-24 14:00:00 26.3 18 Nordeste 24 Nordeste 0 1014.9 -0.5 76
2018-09-24 13:00:00 25.3 13 Nordeste 26 Nordeste 0 1015.2 0.4 80
2018-09-24 12:00:00 25.3 21 Nordeste 28 Nordeste 0 1015.5 1.5 79
2018-09-24 11:00:00 24.8 21 Nordeste 33 Nordeste 0 1015.4 1.9 83
2018-09-24 10:00:00 24.7 21 Nordeste 30 Nordeste 0 1014.8 1.9 83
2018-09-24 09:00:00 24.2 6 Este 15 Nordeste 0 1014 1.5 87
2018-09-24 08:00:00 22.1 9 Nordeste 13 Norte 0 1013.5 0.9 71
2018-09-24 07:00:00 22.9 8 Noroeste 18 Norte 0 1012.9 -0.1 68
2018-09-24 06:00:00 23.2 12 Norte 24 Norte 0 1012.5 -1.1 70
2018-09-24 05:00:00 23.2 16 Norte 22 Norte 0 1012.6 -1.6 67
2018-09-24 04:00:00 22.8 16 Norte 24 Norte 0 1013 -2.3 79
2018-09-24 03:00:00 22.9 18 Norte 30 Norte 0 1013.6 -1.6 90
2018-09-24 02:00:00 23.1 21 Norte 32 Norte 0 1014.2 0.1 90
2018-09-24 01:00:00 23.4 25 Norte 32 Norte 0 1015.3 2 91
2018-09-24 00:00:00 23.8 12 Nordeste 22 Este 0 1015.2 2.6 85
2018-09-23 23:00:00 24.3 14 Nordeste 21 Nordeste 0 1014.1 1.8 87
2018-09-23 22:00:00 24.5 11 Norte 18 Norte 0 1013.3 1.1 84
2018-09-23 21:00:00 24.6 13 Norte 30 Nordeste 0 1012.6 0.4 86
2018-09-23 20:00:00 24.8 26 Nordeste 33 Nordeste 0 1012.3 0.2 86
2018-09-23 19:00:00 25.1 16 Nordeste 24 Nordeste 0 1012.2 -0.5 85
2018-09-23 18:00:00 25.9 18 Nordeste -- -- -- 1012.2 -1 82
2018-09-23 17:00:00 26.1 22 Nordeste 30 Nordeste 0 1012.1 -1.7 79
2018-09-23 16:00:00 26.1 21 Nordeste 30 Nordeste 0 1012.7 -1.7 79
2018-09-23 15:00:00 26.4 22 Nordeste 32 Nordeste 0 1013.2 -1.5 78
2018-09-23 14:00:00 25.7 27 Nordeste 35 Norte 0 1013.8 -0.4 79
2018-09-23 13:00:00 25.9 28 Nordeste 35 Nordeste 0 1014.4 0.8 78
2018-09-23 12:00:00 26.6 28 Nordeste 39 Nordeste 0 1014.7 1.4 76
2018-09-23 11:00:00 27.6 18 Nordeste 30 Norte 0 1014.2 1.3 66
2018-09-23 10:00:00 27.4 19 Norte 32 Norte 0 1013.6 1.1 57
2018-09-23 09:00:00 25.3 19 Noroeste 32 Noroeste 0 1013.3 1.3 67
2018-09-23 08:00:00 24.2 17 Norte 22 Norte 0 1012.9 1 71
2018-09-23 07:00:00 24 14 Norte 24 Norte 0 1012.5 0.7 74
2018-09-23 06:00:00 23.7 13 Noroeste 28 Norte 0 1012 -0.4 75
2018-09-23 05:00:00 23.7 16 Norte 22 Norte 0 1011.9 -1.7 76
2018-09-23 04:00:00 23.6 17 Nordeste 24 Norte 0 1011.8 -2.4 80
2018-09-23 03:00:00 22.9 15 Norte 37 Norte 0 1012.4 -2.2 85
2018-09-23 02:00:00 23.2 28 Norte 37 Norte 0 1013.6 -0.8 87
2018-09-23 01:00:00 23.4 20 Norte 28 Norte 0 1014.2 0.4 84
2018-09-23 00:00:00 23.4 18 Norte 24 Norte 0 1014.6 1.9 85
2018-09-22 23:00:00 23.7 17 Norte 28 Norte 0 1014.4 1.9 86
2018-09-22 22:00:00 24.2 24 Norte 33 Norte 0 1013.8 1.2 80
2018-09-22 21:00:00 24.2 19 Norte 30 Nordeste 0 1012.7 0.4 83
2018-09-22 20:00:00 24.1 26 Nordeste 35 Nordeste 0 1012.5 0.3 85
2018-09-22 19:00:00 24.8 29 Nordeste 37 Nordeste 0 1012.6 0.3 82
2018-09-22 18:00:00 25.5 28 Nordeste 37 Nordeste 0 1012.3 -0.6 78
2018-09-22 17:00:00 26.1 30 Nordeste 39 Nordeste 0 1012.2 -1.5 74
2018-09-22 16:00:00 26.4 28 Nordeste 37 Nordeste 0 1012.3 -2 74
2018-09-22 15:00:00 26.3 30 Nordeste 37 Nordeste 0 1012.9 -1.5 73
2018-09-22 14:00:00 26.3 25 Nordeste 32 Nordeste 0 1013.7 -0.5 72
2018-09-22 13:00:00 25.9 25 Nordeste 32 Nordeste 0 1014.3 0.4 73
2018-09-22 12:00:00 25.6 19 Nordeste 30 Nordeste 0 1014.4 1.1 71
2018-09-22 11:00:00 25 24 Nordeste 30 Nordeste 0 1014.2 1.2 72
2018-09-22 10:00:00 24.1 23 Nordeste 30 Norte 0 1013.9 1.3 75
2018-09-22 09:00:00 22.9 17 Nordeste 28 Nordeste 0 1013.3 1.1 79
2018-09-22 08:00:00 21.7 14 Norte 28 Noroeste 0 1013 0.7 79
2018-09-22 07:00:00 21.6 17 Norte 24 Norte 0 1012.6 0.1 81
2018-09-22 06:00:00 21.8 19 Norte 28 Norte 0 1012.2 -0.8 81
2018-09-22 05:00:00 21.8 17 Norte 24 Norte 0 1012.3 -1.4 80
2018-09-22 04:00:00 22 16 Norte 22 Norte 0 1012.5 -1.9 79
2018-09-22 03:00:00 22 14 Norte 18 Norte 0 1013 -1.7 78
2018-09-22 02:00:00 22.3 16 Norte 39 Nordeste 0 1013.7 -1 79
2018-09-22 01:00:00 22.8 30 Norte 37 Nordeste 0 1014.4 0.3 80
2018-09-22 00:00:00 22.9 17 Norte 22 Norte 0 1014.7 1.3 76
2018-09-21 23:00:00 23 15 Norte 28 Norte 0 1014.7 1.9 74
2018-09-21 22:00:00 23.3 23 Norte 35 Norte 0 1014.1 1.6 74
2018-09-21 21:00:00 23.9 24 Norte 37 Noroeste 0 1013.4 0.9 72
2018-09-21 20:00:00 25 26 Norte 35 Noroeste 0 1012.8 0 66
2018-09-21 19:00:00 26.6 23 Norte 35 Norte 0 1012.5 -0.4 62
2018-09-21 18:00:00 25.7 28 Nordeste 41 Nordeste 0 1012.5 -0.8 73
2018-09-21 17:00:00 26 28 Nordeste 39 Nordeste 0 1012.8 -1.1 73
2018-09-21 16:00:00 26.2 29 Nordeste 35 Nordeste 0 1012.9 -1.8 73
2018-09-21 15:00:00 26.5 27 Nordeste 33 Nordeste 0 1013.3 -1.6 71
2018-09-21 14:00:00 26.2 24 Nordeste 32 Nordeste 0 1013.9 -1.2 72
2018-09-21 13:00:00 25.9 22 Nordeste 30 Nordeste 0 1014.7 -0.1 72
2018-09-21 12:00:00 26.1 23 Nordeste 32 Nordeste 0 1014.9 0.5 66
2018-09-21 11:00:00 25.5 25 Nordeste 33 Norte 0 1015.1 1 64
2018-09-21 10:00:00 24.5 27 Nordeste 35 Norte 0 1014.8 0.9 69
2018-09-21 09:00:00 23.7 26 Norte 33 Norte 0 1014.4 0.8 71
2018-09-21 08:00:00 22.9 26 Nordeste 33 Nordeste 0 1014.1 0.5 75
2018-09-21 07:00:00 23.1 24 Norte 33 Norte 0 1013.9 -0.2 70
2018-09-21 06:00:00 22.9 18 Norte 26 Norte 0 1013.6 -0.9 71
2018-09-21 05:00:00 22.8 24 Norte 37 Norte 0 1013.6 -1.5 70
2018-09-21 04:00:00 22.9 23 Norte 32 Norte 0 1014.1 -1.6 73
2018-09-21 03:00:00 22.9 24 Norte 32 Norte 0 1014.5 -1.6 74
2018-09-21 02:00:00 22.6 15 Norte 24 Norte 0 1015.1 -0.9 80
2018-09-21 01:00:00 22.6 17 Norte 26 Nordeste 0 1015.7 0 80
2018-09-21 00:00:00 22.9 18 Norte 28 Norte 0 1016.1 0.9 79
2018-09-20 23:00:00 23.3 18 Norte 26 Norte 0 1016 1.2 79
2018-09-20 22:00:00 23.5 16 Norte 26 Nordeste 0 1015.7 1 76
2018-09-20 21:00:00 23.5 20 Nordeste 32 Nordeste 0 1015.2 0.8 82
2018-09-20 20:00:00 23.8 24 Nordeste 32 Nordeste 0 1014.8 0.1 80
2018-09-20 19:00:00 24.5 23 Nordeste 30 Nordeste 0 1014.7 -0.1 76
2018-09-20 18:00:00 25.2 22 Nordeste 30 Nordeste 0 1014.4 -0.9 73
2018-09-20 17:00:00 25.7 22 Nordeste 30 Nordeste 0 1014.7 -1.1 71
2018-09-20 16:00:00 25.9 20 Nordeste 28 Nordeste 0 1014.8 -1.5 71
2018-09-20 15:00:00 26.1 21 Nordeste 28 Nordeste 0 1015.3 -1.2 73
2018-09-20 14:00:00 26.3 22 Nordeste 30 Nordeste 0 1015.8 -0.8 71
2018-09-20 13:00:00 26 25 Nordeste 32 Nordeste 0 1016.3 0.2 71
2018-09-20 12:00:00 25.7 23 Nordeste 28 Nordeste 0 1016.5 0.9 72
2018-09-20 11:00:00 24.8 16 Nordeste 21 Nordeste 0 1016.6 1.5 77
2018-09-20 10:00:00 23.9 14 Nordeste 21 Nordeste 0 1016.1 1.3 81
2018-09-20 09:00:00 23.2 14 Norte 18 Nordeste 0 1015.6 1.1 81
2018-09-20 08:00:00 22.6 12 Norte 21 Norte 0 1015.1 0.8 86
2018-09-20 07:00:00 22.9 11 Norte 15 Norte 0 1014.8 0.1 87
2018-09-20 06:00:00 22.7 10 Norte 17 Norte 0 1014.5 -0.6 88
2018-09-20 05:00:00 22.9 13 Norte 17 Norte 0 1014.3 -1.4 87
2018-09-20 04:00:00 23.1 12 Nordeste 18 Nordeste 0 1014.7 -1.8 87
2018-09-20 03:00:00 23.1 14 Nordeste 21 Norte 0 1015.1 -2 87
2018-09-20 02:00:00 23.1 13 Nordeste 18 Nordeste 0 1015.7 -1.3 88
2018-09-20 01:00:00 23.2 13 Nordeste 18 Nordeste 0 1016.5 -0.2 88
2018-09-20 00:00:00 23.4 11 Nordeste 21 Nordeste 0 1017.1 1.1 87
2018-09-19 23:00:00 23.4 15 Nordeste 21 Nordeste 0 1017 1.4 87
2018-09-19 22:00:00 23.5 16 Nordeste 22 Norte 0 1016.7 1.6 86
2018-09-19 21:00:00 23.7 15 Nordeste 22 Nordeste 0 1016 1.6 86
2018-09-19 20:00:00 24.1 18 Nordeste 24 Nordeste 0 1015.6 1.5 84
2018-09-19 19:00:00 24.9 19 Nordeste 28 Nordeste 0 1015.1 0.6 81
2018-09-19 18:00:00 25.3 21 Nordeste 26 Nordeste 0 1014.4 -0.7 78
2018-09-19 17:00:00 25.9 20 Nordeste 28 Nordeste 0 1014.1 -1.5 75
2018-09-19 16:00:00 25.6 17 Nordeste 22 Nordeste 0 1014.5 -1.7 75
2018-09-19 15:00:00 25.7 14 Nordeste 21 Nordeste 0 1015.1 -1.5 74
2018-09-19 14:00:00 25.5 13 Este 22 Nordeste 0 1015.6 -1 74
2018-09-19 13:00:00 25.4 12 Nordeste 17 Este 0 1016.2 1.3 74
2018-09-19 12:00:00 25.1 9 Este 15 Este 0 1016.6 3 75
2018-09-19 11:00:00 24.8 10 Este 21 Nordeste 0 1016.6 3.5 76
2018-09-19 10:00:00 24.3 13 Nordeste 18 Norte 0 1014.9 1.7 77
2018-09-19 09:00:00 23.1 14 Norte 24 Noroeste 0 1013.6 0.5 80
2018-09-19 08:00:00 22.2 15 Noroeste 30 Oeste 0 1013.1 0.7 88
2018-09-19 07:00:00 22.4 13 Norte 21 Nordeste 0 1013.2 0.1 90
2018-09-19 06:00:00 22.7 15 Nordeste 24 Nordeste 0 1013.1 -0.5 89
2018-09-19 05:00:00 22.7 19 Nordeste 26 Nordeste 0 1012.4 -1.7 88
2018-09-19 04:00:00 22.9 18 Nordeste 28 Norte 0 1013.1 -1.3 88
2018-09-19 03:00:00 22.9 19 Nordeste 28 Norte 0 1013.6 -0.8 88
2018-09-19 02:00:00 22.9 23 Nordeste 32 Nordeste 0 1014.1 0.3 88
2018-09-19 01:00:00 23.1 19 Nordeste 32 Nordeste 0 1014.4 1.4 88
2018-09-19 00:00:00 23.1 26 Nordeste 37 Nordeste 0 1014.4 2.4 88
2018-09-18 23:00:00 23.3 29 Nordeste 35 Nordeste 0 1013.8 2.3 86
2018-09-18 22:00:00 23.6 26 Nordeste 33 Nordeste 0 1013 1.5 85
2018-09-18 21:00:00 23.5 16 Nordeste 26 Norte 0 1012 0.3 86
2018-09-18 20:00:00 23.7 18 Norte 22 Nordeste 0 1011.5 -0.5 85
2018-09-18 19:00:00 24.5 15 Nordeste 21 Nordeste 0 1011.5 -0.7 82
2018-09-18 18:00:00 25.3 17 Nordeste 22 Nordeste 0 1011.7 -0.9 79
2018-09-18 17:00:00 25.5 15 Nordeste 21 Nordeste 0 1012 -0.8 77
2018-09-18 16:00:00 25.5 15 Nordeste 22 Nordeste 0 1012.2 -1 77
2018-09-18 15:00:00 26 18 Nordeste 24 Nordeste 0 1012.6 -0.8 71
2018-09-18 14:00:00 26.2 19 Nordeste 28 Nordeste 0 1012.8 -0.6 68
2018-09-18 13:00:00 26.2 18 Nordeste 26 Nordeste 0 1013.2 0.1 69
2018-09-18 12:00:00 25.3 17 Nordeste 22 Nordeste 0 1013.4 1 71
2018-09-18 11:00:00 24.6 15 Nordeste 24 Nordeste 0 1013.4 1.5 72
2018-09-18 10:00:00 23.9 22 Nordeste 26 Nordeste 0 1013.1 1.3 74
2018-09-18 09:00:00 23.6 18 Nordeste 26 Nordeste 0 1012.4 0.7 74
2018-09-18 08:00:00 23.2 16 Nordeste 28 Nordeste 0 1011.9 0.6 72
2018-09-18 07:00:00 23.2 20 Norte 30 Norte 0 1011.8 0.1 71
2018-09-18 06:00:00 23.2 18 Norte 30 Norte 0 1011.7 -0.5 76
2018-09-18 05:00:00 23.1 19 Norte 32 Norte 0 1011.3 -1.5 74
2018-09-18 04:00:00 23.1 26 Nordeste 32 Norte 0 1011.7 -1.2 74
2018-09-18 03:00:00 23.2 23 Nordeste 32 Nordeste 0 1012.2 -- 77
2018-09-18 02:00:00 23.4 17 Norte 30 Nordeste 0 1012.8 -0.1 74
2018-09-18 01:00:00 23.3 20 Nordeste 28 Nordeste 0 1012.9 0.6 73
2018-09-18 00:00:00 23.4 17 Nordeste 30 Norte 0 -- -- 76
2018-09-17 23:00:00 23.5 24 Norte 30 Norte 0 1012.9 1.4 74
2018-09-17 22:00:00 23.9 25 Norte 33 Norte 0 1012.3 0.7 68
2018-09-17 21:00:00 23.8 18 Norte 33 Norte 0 1011.7 0 75
2018-09-17 20:00:00 24.5 22 Norte 30 Norte 0 1011.5 -0.5 67
2018-09-17 19:00:00 24.4 19 Nordeste 26 Nordeste 0 1011.6 -0.4 72
2018-09-17 18:00:00 25.1 20 Nordeste 28 Nordeste 0 1011.7 -0.9 73
2018-09-17 17:00:00 25.5 22 Nordeste 30 Nordeste 0 1012 -1.3 71
2018-09-17 16:00:00 25.8 20 Nordeste 28 Nordeste 0 1012 -1.7 69
2018-09-17 15:00:00 25.6 19 Nordeste 24 Nordeste 0 1012.6 -1.3 69
2018-09-17 14:00:00 25.1 17 Nordeste 22 Nordeste 0 1013.3 -0.9 69
2018-09-17 13:00:00 25 17 Nordeste 26 Nordeste 0 1013.7 -0.2 70
2018-09-17 12:00:00 24.6 22 Nordeste 28 Nordeste 0 1013.9 0.5 69
2018-09-17 11:00:00 23.8 21 Nordeste 30 Norte 0 1014.2 1.1 73
2018-09-17 10:00:00 23.3 21 Nordeste 32 Nordeste 0 1013.9 1.1 75
2018-09-17 09:00:00 23 21 Norte 28 Norte 0 1013.4 0.8 77
2018-09-17 08:00:00 22.7 22 Norte 28 Norte 0 1013.1 0.2 76
2018-09-17 07:00:00 22.7 20 Norte 32 Norte 0 1012.8 -0.2 77
2018-09-17 06:00:00 22.9 23 Norte 33 Norte 0 1012.6 -0.9 76
2018-09-17 05:00:00 22.9 24 Norte 33 Norte 0 1012.9 -1.3 76
2018-09-17 04:00:00 22.5 22 Norte 35 Norte 0 1013 -1.4 76
2018-09-17 03:00:00 22.6 26 Norte 42 Norte 0 1013.5 -1.2 76
2018-09-17 02:00:00 22.6 27 Norte 35 Norte 0 1014.2 -0.6 77
2018-09-17 01:00:00 22.8 18 Norte 42 Norte 0 1014.4 -0.2 75
2018-09-17 00:00:00 23.3 26 Norte 32 Norte 0 1014.7 0.7 75
2018-09-16 23:00:00 23.3 22 Norte 33 Norte 0 1014.8 1.1 74
2018-09-16 22:00:00 23.5 29 Norte 46 Norte 0 1014.6 1.4 73
2018-09-16 21:00:00 23.8 31 Norte 46 Noroeste 0 1014 1 73
2018-09-16 20:00:00 24.8 25 Norte 42 Norte 0 1013.7 0.6 68
2018-09-16 19:00:00 26.2 30 Norte 46 Norte 0 1013.2 -0.1 63
2018-09-16 18:00:00 27.3 34 Norte 46 Norte 0 1013 -0.5 58
2018-09-16 17:00:00 26.8 32 Nordeste 45 Norte 0 1013.1 -0.9 64
2018-09-16 16:00:00 27.6 31 Norte 45 Nordeste 0 1013.3 -1.2 61
2018-09-16 15:00:00 27.9 31 Nordeste 48 Nordeste 0 1013.5 -1.2 61
2018-09-16 14:00:00 28.3 31 Norte 48 Norte 0 1014 -0.6 59
2018-09-16 13:00:00 28.3 34 Norte 48 Noroeste 0 1014.5 0.2 56
2018-09-16 12:00:00 27.6 36 Norte 46 Norte 0 1014.7 0.6 58
2018-09-16 11:00:00 26.6 38 Norte 48 Norte 0 1014.6 0.5 62
2018-09-16 10:00:00 25.4 36 Norte 46 Norte 0 1014.3 0.2 66
2018-09-16 09:00:00 23.8 33 Norte 45 Norte 0 1014.1 0.1 74
2018-09-16 08:00:00 22.6 26 Norte 35 Noroeste 0 1014.1 -0.2 77
2018-09-16 07:00:00 22.5 24 Norte 32 Norte 0 1014.1 -0.8 78
2018-09-16 06:00:00 22.3 19 Norte 28 Norte 0 1014 -1.3 80
2018-09-16 05:00:00 22.5 17 Norte 22 Norte 0 1014.3 -1.6 79
2018-09-16 04:00:00 22.7 17 Norte 26 Norte 0 1014.9 -1.4 80
2018-09-16 03:00:00 23.1 18 Norte 24 Norte 0 1015.3 -1 82
2018-09-16 02:00:00 23.5 18 Norte 24 Norte 0 1015.9 -0.3 79
2018-09-16 01:00:00 23.5 17 Norte 30 Norte 0 1016.3 0.3 79
2018-09-16 00:00:00 23.8 23 Norte 32 Norte 0 1016.3 0.9 79
2018-09-15 23:00:00 23.9 23 Norte 32 Norte 0 1016.2 1.4 76
2018-09-15 22:00:00 24.3 21 Norte 35 Norte 0 1016 1.6 72
2018-09-15 21:00:00 24.9 23 Norte 33 Norte 0 1015.4 1.4 68
2018-09-15 20:00:00 25.4 26 Norte 37 Noroeste 0 1014.8 0.7 67
2018-09-15 19:00:00 26.4 27 Norte 37 Norte 0 1014.4 0.5 64
2018-09-15 18:00:00 26.1 23 Norte 42 Nordeste 0 1014 -0.3 66
2018-09-15 17:00:00 25.8 31 Nordeste 45 Nordeste 0 1014.1 -0.7 71
2018-09-15 16:00:00 27.3 32 Nordeste 45 Nordeste 0 1013.9 -1.4 65
2018-09-15 15:00:00 27.5 29 Nordeste 42 Nordeste 0 1014.3 -1.2 63
2018-09-15 14:00:00 27.5 22 Nordeste 32 Nordeste 0 1014.8 -0.6 63
2018-09-15 13:00:00 27.1 27 Nordeste 37 Nordeste 0 1015.3 0.1 63
2018-09-15 12:00:00 26.5 24 Nordeste 32 Nordeste 0 1015.5 0.6 68
2018-09-15 11:00:00 26.3 15 Norte 28 Norte 0 1015.4 0.7 60
2018-09-15 10:00:00 24.6 16 Norte 24 Norte 0 1015.2 1 68
2018-09-15 09:00:00 23.4 17 Norte 28 Oeste 0 1014.9 0.9 77
2018-09-15 08:00:00 22.5 13 Norte 21 Noroeste 0 1014.7 1 75
2018-09-15 07:00:00 22.5 13 Norte 18 Norte 0 1014.2 0.5 78
2018-09-15 06:00:00 22.9 14 Norte 28 Norte 0 1014 0 83
2018-09-15 05:00:00 23.3 17 Norte 28 Norte 0 1013.7 -0.3 84
2018-09-15 04:00:00 23.6 20 Norte 32 Norte 0 1013.7 -0.8 83
2018-09-15 03:00:00 23.8 21 Norte 32 Norte 0 1014 -1.1 83
2018-09-15 02:00:00 24.1 25 Norte 33 Norte 0 1014 -1.4 80
2018-09-15 01:00:00 24 11 Nordeste 17 Nordeste 0 1014.5 -0.6 84
2018-09-15 00:00:00 23.9 10 Nordeste 21 Nordeste 0 1015.1 0.3 90